Time;durP1;ratioP1;P1;durP2;ratioP2;P2;SDS_P1;SDS_P2;PMS_P1;PMS_P2;Temp;Humidity;BMP_temperature;BMP_pressure;BME280_temperature;BME280_humidity;BME280_pressure;Samples;Min_cycle;Max_cycle;Signal;HPM_P1;HPM_P2
2022/01/15 00:01:36;;;;;;;53.77;14.43;;;;;;;16.56;39.60;103393.59;5110892;28;20027;-69
2022/01/15 00:04:01;;;;;;;50.23;14.90;;;;;;;15.68;41.16;103398.19;5112007;28;20019;-69
2022/01/15 00:06:27;;;;;;;59.27;16.00;;;;;;;17.13;38.33;103393.88;5109671;28;20076;-69
2022/01/15 00:08:52;;;;;;;52.97;15.90;;;;;;;17.10;38.70;103379.75;5110107;28;20015;-69
2022/01/15 00:11:18;;;;;;;52.73;15.27;;;;;;;17.07;38.51;103391.19;5129920;28;20482;-69
2022/01/15 00:13:45;;;;;;;59.07;17.27;;;;;;;17.15;37.53;103380.66;5111598;28;20414;-69
2022/01/15 00:16:24;;;;;;;65.33;15.97;;;;;;;16.79;39.23;103385.78;5102375;28;20019;-69
2022/01/15 00:19:06;;;;;;;63.03;16.73;;;;;;;17.39;38.45;103377.22;5093150;28;20119;-69
2022/01/15 00:21:32;;;;;;;68.22;16.55;;;;;;;16.39;39.08;103369.75;5108647;27;20146;-69
2022/01/15 00:23:57;;;;;;;64.17;16.03;;;;;;;16.91;38.48;103370.91;5114392;27;20534;-69
2022/01/15 00:26:22;;;;;;;55.23;17.20;;;;;;;17.19;37.94;103374.50;5108423;28;20031;-69
2022/01/15 00:28:48;;;;;;;59.70;16.33;;;;;;;16.98;38.49;103364.78;5105006;27;20122;-69
2022/01/15 00:31:13;;;;;;;56.30;16.67;;;;;;;17.08;38.53;103366.56;5114245;27;20027;-69
2022/01/15 00:33:39;;;;;;;55.00;15.40;;;;;;;17.21;38.37;103369.22;5114908;27;20454;-69
2022/01/15 00:36:05;;;;;;;59.40;15.30;;;;;;;16.96;39.32;103358.59;5113056;27;20118;-69
2022/01/15 00:38:30;;;;;;;55.40;15.93;;;;;;;16.51;39.81;103360.13;5112431;27;20031;-69
2022/01/15 00:40:55;;;;;;;53.87;14.97;;;;;;;17.01;38.48;103353.31;5115020;27;20027;-69
2022/01/15 00:43:21;;;;;;;50.53;15.13;;;;;;;16.34;40.08;103350.34;5113477;27;20120;-69
2022/01/15 00:45:47;;;;;;;43.00;13.63;;;;;;;15.86;40.39;103357.94;5107384;28;20059;-69
2022/01/15 00:48:13;;;;;;;43.13;13.13;;;;;;;14.98;41.62;103353.56;5112640;28;20031;-69
2022/01/15 00:50:39;;;;;;;57.13;14.60;;;;;;;14.37;44.65;103355.38;5111532;27;20027;-69
2022/01/15 00:53:04;;;;;;;51.50;15.73;;;;;;;15.26;43.02;103349.44;5132463;27;20027;-69
2022/01/15 00:55:30;;;;;;;52.60;14.80;;;;;;;16.21;40.09;103343.22;5114049;27;20368;-69
2022/01/15 00:57:56;;;;;;;36.50;12.97;;;;;;;14.68;42.80;103342.66;5105828;28;20019;-69
2022/01/15 01:00:24;;;;;;;43.10;12.67;;;;;;;15.83;40.89;103343.88;5104801;28;20126;-69
2022/01/15 01:02:49;;;;;;;54.00;15.10;;;;;;;14.69;42.91;103349.69;5108224;27;20023;-68
2022/01/15 01:05:17;;;;;;;55.10;15.97;;;;;;;16.73;39.50;103335.59;5113323;27;20031;-69
2022/01/15 01:07:42;;;;;;;50.63;14.10;;;;;;;16.50;39.65;103327.56;5113928;27;20409;-68
2022/01/15 01:21:31;;;;;;;44.60;14.30;;;;;;;14.60;43.25;103320.56;5123549;27;20050;-69
2022/01/15 01:23:48;;;;;;;58.33;14.77;;;;;;;15.30;42.28;103317.00;5131963;27;20407;-69
2022/01/15 01:26:28;;;;;;;53.47;13.60;;;;;;;15.27;41.54;103314.34;5113239;27;20062;-69
2022/01/15 01:29:07;;;;;;;54.07;15.03;;;;;;;15.56;41.72;103308.44;5113548;27;20027;-69
2022/01/15 01:31:38;;;;;;;52.87;13.60;;;;;;;16.28;39.66;103302.84;5099037;28;20028;-68
2022/01/15 01:34:11;;;;;;;51.70;14.27;;;;;;;16.59;39.02;103293.28;5111008;28;20020;-68
2022/01/15 01:39:23;;;;;;;57.27;14.20;;;;;;;16.08;40.40;103300.94;5129368;27;20405;-69
2022/01/15 01:42:06;;;;;;;50.53;14.33;;;;;;;16.17;39.87;103299.22;5130906;27;20031;-69
2022/01/15 01:44:38;;;;;;;49.50;13.47;;;;;;;15.46;40.85;103296.09;5113362;27;20486;-69
2022/01/15 01:47:07;;;;;;;45.17;12.40;;;;;;;15.42;41.08;103300.44;5112883;27;20466;-68
2022/01/15 01:49:32;;;;;;;58.07;14.87;;;;;;;16.35;40.16;103288.78;5110712;27;20015;-69
2022/01/15 01:51:58;;;;;;;47.13;13.03;;;;;;;16.86;39.12;103285.47;5112929;27;20417;-68
2022/01/15 01:54:23;;;;;;;51.23;12.87;;;;;;;16.01;39.86;103293.88;5094008;28;20046;-69
2022/01/15 01:56:50;;;;;;;44.70;11.80;;;;;;;16.45;39.31;103290.56;5112358;27;20069;-69
2022/01/15 01:59:16;;;;;;;49.13;13.23;;;;;;;16.46;39.66;103288.84;5109072;28;20027;-68
2022/01/15 02:01:42;;;;;;;51.60;14.10;;;;;;;16.52;38.84;103286.22;5111292;27;20046;-69
2022/01/15 02:04:08;;;;;;;49.30;13.63;;;;;;;16.25;39.33;103272.03;5130939;27;20028;-69
2022/01/15 02:06:36;;;;;;;51.63;14.33;;;;;;;16.44;39.06;103278.28;5131806;27;20112;-69
2022/01/15 02:09:05;;;;;;;48.67;13.13;;;;;;;16.14;40.23;103272.84;5111040;27;20050;-69
2022/01/15 02:11:30;;;;;;;50.03;13.50;;;;;;;16.32;39.50;103265.03;5118063;27;20426;-68
2022/01/15 02:13:56;;;;;;;42.20;13.13;;;;;;;16.10;39.26;103266.66;5112806;27;20046;-69
2022/01/15 02:16:21;;;;;;;51.73;12.70;;;;;;;16.03;39.99;103260.50;5111844;27;20098;-69
2022/01/15 02:18:52;;;;;;;51.43;14.00;;;;;;;16.50;39.57;103263.31;5128903;27;20035;-69
2022/01/15 02:23:50;;;;;;;43.07;11.77;;;;;;;15.78;40.25;103265.56;5110357;28;20055;-68
2022/01/15 02:26:26;;;;;;;47.03;12.40;;;;;;;16.22;40.19;103255.28;5109835;28;20439;-69
2022/01/15 02:29:00;;;;;;;42.40;12.07;;;;;;;15.61;40.70;103256.66;5106044;28;20326;-69
2022/01/15 02:31:28;;;;;;;51.23;13.17;;;;;;;14.70;42.74;103254.06;5098205;28;20432;-68
2022/01/15 02:33:55;;;;;;;38.77;12.13;;;;;;;15.14;41.97;103254.50;5090483;28;20024;-69
2022/01/15 02:36:23;;;;;;;47.03;13.27;;;;;;;16.28;39.30;103245.66;5095624;28;20035;-69
2022/01/15 02:38:49;;;;;;;47.63;13.70;;;;;;;16.36;38.95;103240.41;5108300;28;20019;-69
2022/01/15 02:41:23;;;;;;;45.90;12.43;;;;;;;15.53;40.44;103235.50;5108249;28;20028;-69
2022/01/15 02:43:49;;;;;;;40.77;12.93;;;;;;;14.55;42.37;103243.34;5108086;28;20039;-69
2022/01/15 02:49:04;;;;;;;48.07;10.90;;;;;;;15.46;41.64;103230.19;5109846;28;20028;-69
2022/01/15 02:51:32;;;;;;;43.00;12.33;;;;;;;15.22;41.61;103221.19;5107644;28;20019;-69
2022/01/15 02:53:58;;;;;;;46.47;12.47;;;;;;;15.29;40.58;103220.41;5097352;28;20066;-69
2022/01/15 02:56:36;;;;;;;41.90;13.13;;;;;;;14.15;43.12;103224.41;5110114;28;20051;-69
2022/01/15 02:59:04;;;;;;;38.37;11.47;;;;;;;15.86;40.63;103209.41;5108792;28;20036;-69
2022/01/15 03:01:31;;;;;;;39.67;12.60;;;;;;;15.68;40.94;103205.72;5109063;28;20035;-69
2022/01/15 03:03:56;;;;;;;42.20;11.57;;;;;;;14.30;43.08;103216.72;5108627;28;20360;-68
2022/01/15 03:06:22;;;;;;;39.23;11.80;;;;;;;16.03;39.93;103213.00;5108038;28;20061;-68
2022/01/15 03:08:49;;;;;;;42.30;12.03;;;;;;;15.83;40.55;103209.38;5108006;28;20028;-68
2022/01/15 03:11:14;;;;;;;39.00;12.13;;;;;;;15.91;40.07;103207.66;5108256;28;20020;-69
2022/01/15 03:13:41;;;;;;;38.50;11.17;;;;;;;16.09;40.03;103207.75;5096950;28;20028;-68
2022/01/15 03:16:09;;;;;;;41.67;11.33;;;;;;;15.81;40.24;103195.28;5099933;28;20312;-69
2022/01/15 03:18:34;;;;;;;40.63;12.30;;;;;;;14.91;41.84;103199.88;5093770;28;20024;-69
2022/01/15 03:21:00;;;;;;;44.90;11.03;;;;;;;15.65;40.83;103192.53;5108317;28;20063;-68
2022/01/15 03:23:26;;;;;;;38.10;10.60;;;;;;;15.97;39.81;103194.50;5107337;28;20372;-69
2022/01/15 03:25:51;;;;;;;38.73;11.60;;;;;;;15.64;40.71;103197.81;5100914;28;20103;-68
2022/01/15 03:28:17;;;;;;;32.37;10.37;;;;;;;15.54;40.44;103196.88;5104583;28;20028;-69
2022/01/15 03:30:42;;;;;;;41.57;11.20;;;;;;;16.23;39.35;103193.75;5109040;28;20495;-69
2022/01/15 03:33:08;;;;;;;41.13;11.27;;;;;;;16.03;39.24;103197.19;5106138;28;20024;-69
2022/01/15 03:35:34;;;;;;;37.97;11.10;;;;;;;16.16;40.09;103186.69;5110569;28;20042;-69
2022/01/15 03:38:00;;;;;;;36.40;11.97;;;;;;;15.54;39.99;103179.28;5104799;28;20020;-69
2022/01/15 03:40:25;;;;;;;40.47;12.20;;;;;;;14.74;42.40;103186.53;5087184;28;20377;-68
2022/01/15 03:42:51;;;;;;;39.77;13.53;;;;;;;15.63;40.44;103181.09;5099059;28;20023;-69
2022/01/15 03:45:16;;;;;;;40.07;11.20;;;;;;;15.97;39.09;103185.72;5108705;28;20164;-69
2022/01/15 03:47:44;;;;;;;35.20;10.93;;;;;;;15.13;41.48;103179.00;5107274;28;20040;-69
2022/01/15 03:50:10;;;;;;;36.67;11.50;;;;;;;15.00;41.88;103178.88;5087827;28;20058;-69
2022/01/15 03:52:35;;;;;;;37.03;9.30;;;;;;;12.94;45.90;103198.91;5095807;28;20043;-69
2022/01/15 03:55:03;;;;;;;34.07;9.80;;;;;;;14.66;42.30;103194.34;5108627;28;20127;-68
2022/01/15 03:57:28;;;;;;;39.27;10.73;;;;;;;14.41;42.00;103177.38;5098372;28;20027;-69
2022/01/15 03:59:54;;;;;;;35.30;11.47;;;;;;;14.29;43.06;103175.50;5095937;28;20028;-68
2022/01/15 04:02:19;;;;;;;36.07;9.57;;;;;;;14.40;42.63;103165.97;5104680;28;20509;-69
2022/01/15 04:04:45;;;;;;;34.23;8.90;;;;;;;14.32;43.07;103167.63;5113888;28;20035;-69
2022/01/15 04:07:10;;;;;;;41.40;10.33;;;;;;;14.73;41.18;103171.63;5110200;28;20027;-68
2022/01/15 04:09:36;;;;;;;36.83;9.87;;;;;;;14.81;41.49;103166.41;5096727;28;20028;-69
2022/01/15 04:12:01;;;;;;;39.80;12.73;;;;;;;13.77;44.32;103170.44;5091804;28;20020;-68
2022/01/15 04:14:26;;;;;;;32.17;10.37;;;;;;;14.06;42.80;103160.31;5111530;28;20019;-69
2022/01/15 04:16:52;;;;;;;34.23;9.13;;;;;;;12.25;46.75;103169.59;5110895;28;20472;-68
2022/01/15 04:19:17;;;;;;;35.53;10.17;;;;;;;13.77;44.41;103159.94;5113311;28;20032;-68
2022/01/15 04:21:43;;;;;;;29.93;8.20;;;;;;;13.90;42.86;103163.59;5110041;28;20506;-68
2022/01/15 04:24:08;;;;;;;34.43;10.50;;;;;;;14.63;42.05;103144.31;5113047;28;20031;-68
2022/01/15 04:26:34;;;;;;;31.53;9.87;;;;;;;13.51;43.30;103141.19;5109209;28;20023;-68
2022/01/15 04:29:03;;;;;;;34.43;10.40;;;;;;;13.85;44.03;103155.66;5111998;28;20024;-69
2022/01/15 04:31:36;;;;;;;34.27;9.63;;;;;;;12.71;46.06;103160.00;5112913;28;20035;-68
2022/01/15 04:34:02;;;;;;;32.50;10.32;;;;;;;12.35;47.50;103153.19;5094352;27;20118;-68
2022/01/15 04:36:27;;;;;;;28.77;9.67;;;;;;;12.32;46.68;103147.91;5102395;28;20023;-69
2022/01/15 04:38:53;;;;;;;23.33;6.53;;;;;;;11.79;47.98;103140.66;5111222;28;20379;-69
2022/01/15 04:41:18;;;;;;;29.43;8.23;;;;;;;12.25;46.96;103138.13;5110948;28;20027;-68
2022/01/15 04:43:43;;;;;;;33.97;9.00;;;;;;;13.53;43.60;103131.56;5110255;28;20027;-69
2022/01/15 04:46:09;;;;;;;29.00;8.47;;;;;;;13.72;43.43;103123.09;5110597;28;20016;-69
2022/01/15 04:48:34;;;;;;;29.70;8.17;;;;;;;14.27;42.15;103114.06;5098819;28;20024;-68
2022/01/15 04:50:59;;;;;;;31.07;9.10;;;;;;;14.24;42.25;103121.94;5103514;28;20035;-69
2022/01/15 04:53:25;;;;;;;40.47;10.77;;;;;;;14.33;41.93;103122.06;5110055;28;20020;-68
2022/01/15 04:55:50;;;;;;;47.17;10.93;;;;;;;14.18;42.64;103120.13;5111007;28;20073;-69
2022/01/15 04:58:16;;;;;;;33.80;9.87;;;;;;;13.60;43.91;103122.94;5109576;28;20023;-68
2022/01/15 05:00:41;;;;;;;33.07;9.17;;;;;;;12.92;46.07;103116.59;5109961;28;20114;-69
2022/01/15 05:03:06;;;;;;;36.43;9.03;;;;;;;13.66;43.64;103125.63;5111440;27;20510;-69
2022/01/15 05:05:32;;;;;;;37.87;9.40;;;;;;;14.40;41.49;103118.63;5110660;28;20036;-69
2022/01/15 05:07:57;;;;;;;42.37;9.50;;;;;;;13.55;43.09;103114.97;5111277;28;20032;-69
2022/01/15 05:10:27;;;;;;;46.13;11.37;;;;;;;13.79;43.58;103113.50;5109108;28;20023;-69
2022/01/15 05:12:56;;;;;;;44.23;10.97;;;;;;;14.45;42.20;103112.50;5111803;28;20015;-69
2022/01/15 05:15:22;;;;;;;41.50;10.27;;;;;;;15.13;40.11;103110.50;5110453;28;20019;-69
2022/01/15 05:17:48;;;;;;;42.33;11.57;;;;;;;14.02;42.77;103105.91;5111589;28;20097;-68
2022/01/15 05:20:18;;;;;;;32.17;8.53;;;;;;;13.66;42.81;103090.59;5108720;28;20518;-69
2022/01/15 05:22:48;;;;;;;39.73;11.03;;;;;;;14.25;42.48;103086.91;5093800;28;20073;-68
2022/01/15 05:25:14;;;;;;;39.73;10.23;;;;;;;13.09;44.71;103081.84;5099277;27;20500;-68
2022/01/15 05:27:44;;;;;;;37.03;10.00;;;;;;;13.43;43.62;103079.75;5132421;27;20030;-68
2022/01/15 05:30:11;;;;;;;34.57;9.30;;;;;;;13.57;44.24;103079.09;5112711;27;20015;-68
2022/01/15 05:32:37;;;;;;;38.80;9.27;;;;;;;14.88;41.29;103068.19;5113052;27;20035;-68
2022/01/15 05:35:03;;;;;;;44.57;10.37;;;;;;;14.91;41.23;103062.94;5113491;27;20023;-69
2022/01/15 05:37:28;;;;;;;38.27;9.37;;;;;;;14.38;42.78;103067.75;5113474;27;20034;-69
2022/01/15 05:39:54;;;;;;;38.03;10.40;;;;;;;13.43;43.66;103071.88;5111835;27;20015;-68
2022/01/15 05:42:20;;;;;;;33.97;9.40;;;;;;;13.88;42.33;103060.19;5131233;27;20027;-69
2022/01/15 05:44:45;;;;;;;43.03;10.07;;;;;;;13.39;44.63;103056.09;5113833;27;20023;-69
2022/01/15 05:47:11;;;;;;;48.90;11.63;;;;;;;14.28;42.11;103044.81;5112705;27;20019;-69
2022/01/15 05:49:37;;;;;;;44.83;11.20;;;;;;;13.86;43.05;103051.38;5113346;27;20046;-68
2022/01/15 05:52:03;;;;;;;48.00;12.43;;;;;;;14.69;41.22;103041.72;5111915;27;20502;-68
2022/01/15 05:54:28;;;;;;;44.77;11.57;;;;;;;13.31;43.64;103047.19;5111998;27;20023;-68
2022/01/15 05:56:54;;;;;;;41.97;10.93;;;;;;;13.27;44.09;103045.38;5113432;27;20053;-68
2022/01/15 05:59:19;;;;;;;39.97;9.43;;;;;;;12.86;45.59;103048.28;5131431;27;20023;-68
2022/01/15 06:01:45;;;;;;;35.80;10.40;;;;;;;13.02;45.13;103041.50;5112493;27;20020;-68
2022/01/15 06:04:10;;;;;;;33.43;9.40;;;;;;;13.00;45.32;103033.59;5111589;27;20035;-68
2022/01/15 06:06:35;;;;;;;32.33;9.90;;;;;;;12.68;45.44;103034.00;5130970;27;20407;-68
2022/01/15 06:09:02;;;;;;;35.30;10.03;;;;;;;12.82;45.87;103034.22;5130579;27;20094;-68
2022/01/15 06:11:28;;;;;;;35.77;10.00;;;;;;;11.55;48.24;103038.84;5131344;27;20428;-68
2022/01/15 06:13:54;;;;;;;36.67;10.13;;;;;;;12.15;46.88;103036.56;5129428;27;20524;-68
2022/01/15 06:16:19;;;;;;;35.60;9.90;;;;;;;13.03;44.66;103020.50;5092406;28;20031;-68
2022/01/15 06:18:45;;;;;;;48.17;10.83;;;;;;;14.04;42.25;103027.94;5118630;27;20359;-68
2022/01/15 06:21:11;;;;;;;40.63;10.60;;;;;;;12.74;45.37;103020.09;5110986;27;20474;-68
2022/01/15 06:23:36;;;;;;;39.17;10.33;;;;;;;13.45;43.46;103028.09;5111918;27;20030;-68
2022/01/15 06:26:02;;;;;;;34.40;9.97;;;;;;;13.72;43.32;103031.09;5104344;28;20035;-68
2022/01/15 06:28:28;;;;;;;40.27;10.47;;;;;;;13.69;43.82;103028.41;5095021;27;20077;-68
2022/01/15 06:30:53;;;;;;;32.40;10.20;;;;;;;13.33;44.56;103029.69;5130506;27;20485;-68
2022/01/15 06:33:19;;;;;;;39.10;12.23;;;;;;;12.80;44.95;103022.78;5111754;27;20045;-68
2022/01/15 06:35:44;;;;;;;47.83;13.30;;;;;;;12.88;44.72;103025.53;5128135;27;20055;-68
2022/01/15 06:38:10;;;;;;;38.93;10.97;;;;;;;11.61;46.90;103022.38;5127734;27;20114;-67
2022/01/15 06:40:36;;;;;;;39.17;12.53;;;;;;;11.22;49.02;103023.28;5110667;27;20026;-68
2022/01/15 06:43:01;;;;;;;46.40;14.53;;;;;;;12.35;48.43;103019.47;5111200;27;20384;-68
2022/01/15 06:45:28;;;;;;;58.67;15.93;;;;;;;13.17;46.14;103023.34;5129182;27;20048;-68
2022/01/15 06:47:54;;;;;;;46.37;12.07;;;;;;;12.48;46.51;103017.03;5111794;27;20027;-68
2022/01/15 06:50:22;;;;;;;50.90;12.23;;;;;;;13.21;45.10;103019.00;5111186;27;20083;-68
2022/01/15 06:52:48;;;;;;;49.40;13.27;;;;;;;13.16;44.93;103023.31;5103977;27;20034;-68
2022/01/15 06:55:14;;;;;;;45.50;12.43;;;;;;;12.22;46.87;103017.47;5111193;27;20474;-68
2022/01/15 06:57:39;;;;;;;50.07;15.03;;;;;;;14.08;42.81;103016.59;5129968;27;20043;-68
2022/01/15 07:00:06;;;;;;;54.30;15.00;;;;;;;13.62;43.75;103023.97;5119987;27;20027;-68
2022/01/15 07:02:32;;;;;;;54.83;15.83;;;;;;;14.37;41.98;103013.34;5129426;27;20398;-68
2022/01/15 07:04:57;;;;;;;54.03;14.70;;;;;;;14.40;41.34;103018.63;5103294;28;20046;-68
2022/01/15 07:07:23;;;;;;;56.83;14.63;;;;;;;13.09;44.43;103014.47;5111720;28;20031;-68
2022/01/15 07:09:48;;;;;;;57.17;15.57;;;;;;;13.82;43.10;103021.56;5110830;28;20063;-68
2022/01/15 07:12:13;;;;;;;53.13;14.20;;;;;;;12.93;45.28;103020.34;5108483;28;20019;-68
2022/01/15 07:14:39;;;;;;;55.30;14.73;;;;;;;13.44;44.08;103019.38;5110712;28;20341;-68
2022/01/15 07:17:04;;;;;;;56.73;16.07;;;;;;;12.19;46.59;103017.41;5110822;28;20379;-68
2022/01/15 07:19:31;;;;;;;57.23;15.57;;;;;;;12.95;45.64;103016.03;5111514;28;20027;-68
2022/01/15 07:21:56;;;;;;;64.13;16.07;;;;;;;12.85;44.66;103015.00;5110087;28;20043;-69
2022/01/15 07:24:22;;;;;;;50.47;14.93;;;;;;;14.10;43.23;103023.63;5109884;28;20656;-68
2022/01/15 07:26:47;;;;;;;57.27;14.23;;;;;;;14.63;42.16;103015.34;5111400;27;20031;-68
2022/01/15 07:29:16;;;;;;;56.30;15.37;;;;;;;14.04;43.32;103019.16;5132807;27;20090;-68
2022/01/15 07:31:46;;;;;;;55.20;17.03;;;;;;;13.98;43.56;103025.22;5133519;27;20073;-68
2022/01/15 07:34:12;;;;;;;55.50;15.13;;;;;;;13.09;44.73;103018.84;5126943;27;20038;-68
2022/01/15 07:36:39;;;;;;;46.13;13.50;;;;;;;13.62;43.47;103018.69;5133596;27;20027;-68
2022/01/15 07:39:05;;;;;;;53.87;14.70;;;;;;;14.30;42.14;103006.28;5132469;27;20023;-68
2022/01/15 07:41:31;;;;;;;44.63;15.20;;;;;;;13.44;45.29;103010.59;5133631;27;20054;-68
2022/01/15 07:43:56;;;;;;;65.47;15.07;;;;;;;12.57;47.02;103014.56;5128878;27;20057;-68
2022/01/15 07:46:22;;;;;;;41.03;14.23;;;;;;;12.62;46.44;103015.50;5113915;27;20230;-68
2022/01/15 07:48:47;;;;;;;52.83;14.57;;;;;;;14.03;43.23;102999.88;5115363;27;20030;-68
2022/01/15 07:51:13;;;;;;;55.00;14.83;;;;;;;14.58;42.46;103006.50;5114891;27;20471;-68
2022/01/15 07:53:38;;;;;;;51.93;15.60;;;;;;;13.67;44.10;103001.25;5113620;27;20087;-68
2022/01/15 07:56:04;;;;;;;56.27;16.77;;;;;;;13.85;43.84;103010.22;5114826;27;20114;-68
2022/01/15 07:58:29;;;;;;;52.20;16.53;;;;;;;14.12;43.00;103003.47;5130945;27;20084;-68
2022/01/15 08:00:54;;;;;;;54.10;15.37;;;;;;;14.40;41.81;103008.09;5115007;27;20038;-68
2022/01/15 08:03:19;;;;;;;47.83;14.00;;;;;;;12.87;45.40;103010.66;5103204;27;20031;-68
2022/01/15 08:05:45;;;;;;;44.83;14.80;;;;;;;13.76;44.21;103002.22;5112856;27;20070;-68
2022/01/15 08:08:10;;;;;;;51.07;15.33;;;;;;;14.15;42.77;102995.59;5131349;27;20118;-68
2022/01/15 08:10:36;;;;;;;53.37;15.03;;;;;;;14.14;43.14;102992.09;5132941;27;20026;-68
2022/01/15 08:13:01;;;;;;;60.10;16.00;;;;;;;13.35;45.45;103001.75;5114406;27;20550;-68
2022/01/15 08:15:27;;;;;;;46.00;14.07;;;;;;;13.05;46.24;103000.44;5113973;27;20046;-68
2022/01/15 08:17:53;;;;;;;42.43;13.47;;;;;;;13.17;45.77;102997.06;5115106;27;20475;-67
2022/01/15 08:20:19;;;;;;;40.83;11.13;;;;;;;11.92;48.06;102988.91;5113173;27;20063;-68
2022/01/15 08:22:47;;;;;;;53.00;16.57;;;;;;;12.09;47.89;102984.91;5115102;27;20031;-68
2022/01/15 08:25:16;;;;;;;51.80;13.90;;;;;;;12.95;46.19;102985.41;5114390;27;20068;-68
2022/01/15 08:27:41;;;;;;;49.23;15.23;;;;;;;12.24;49.08;102993.88;5114418;27;20022;-68
2022/01/15 08:30:08;;;;;;;53.00;15.40;;;;;;;12.28;48.59;102995.72;5110837;28;20866;-68
2022/01/15 08:32:34;;;;;;;52.13;16.30;;;;;;;12.46;47.63;102979.41;5126074;27;20110;-68
2022/01/15 08:34:59;;;;;;;61.50;16.63;;;;;;;12.51;47.37;102980.34;5114122;27;20122;-68
2022/01/15 08:37:25;;;;;;;58.43;16.10;;;;;;;12.99;46.17;102981.94;5114189;27;20496;-68
2022/01/15 08:39:50;;;;;;;53.53;16.27;;;;;;;12.89;47.35;102986.19;5097058;27;20027;-68
2022/01/15 08:42:16;;;;;;;59.63;16.13;;;;;;;12.18;48.15;102978.94;5097513;27;20012;-68
2022/01/15 08:44:43;;;;;;;66.30;16.23;;;;;;;13.00;46.28;102982.84;5110099;27;20460;-68
2022/01/15 08:47:09;;;;;;;55.80;16.50;;;;;;;12.40;47.51;102974.94;5112928;27;20023;-68
2022/01/15 08:49:36;;;;;;;60.80;16.73;;;;;;;12.67;47.09;102966.63;5132238;27;20023;-68
2022/01/15 08:52:01;;;;;;;57.53;16.93;;;;;;;13.01;45.84;102963.59;5111744;27;20035;-68
2022/01/15 08:54:27;;;;;;;61.83;16.80;;;;;;;13.67;44.94;102966.19;5039240;27;20198;-68
2022/01/15 08:56:52;;;;;;;63.23;16.00;;;;;;;14.40;42.64;102955.50;5086425;27;20023;-68
2022/01/15 08:59:18;;;;;;;58.43;16.60;;;;;;;14.35;43.52;102961.59;5107280;27;20034;-68
2022/01/15 09:01:44;;;;;;;63.10;15.90;;;;;;;14.04;43.26;102966.56;5127762;27;20203;-68
2022/01/15 09:04:10;;;;;;;67.43;15.93;;;;;;;14.18;43.56;102950.94;5112291;27;20068;-68
2022/01/15 09:06:35;;;;;;;77.13;16.17;;;;;;;13.28;44.90;102968.34;5113894;27;20108;-68
2022/01/15 09:09:00;;;;;;;58.87;16.03;;;;;;;13.25;45.70;102963.03;5131707;27;20098;-68
2022/01/15 09:11:26;;;;;;;61.13;15.33;;;;;;;13.93;44.43;102969.13;5105237;28;20131;-68
2022/01/15 09:13:51;;;;;;;69.97;16.57;;;;;;;13.13;46.46;102973.38;5126550;27;20031;-68
2022/01/15 09:16:17;;;;;;;65.50;17.87;;;;;;;12.80;46.82;102974.69;5113157;27;20599;-68
2022/01/15 09:18:42;;;;;;;59.60;18.97;;;;;;;13.06;46.56;102978.56;5130489;27;20031;-68
2022/01/15 09:21:07;;;;;;;65.83;16.97;;;;;;;13.10;46.41;102975.97;5103498;28;20051;-68
2022/01/15 09:23:33;;;;;;;58.60;16.00;;;;;;;14.32;43.99;102967.69;5109683;28;20383;-68
2022/01/15 09:25:59;;;;;;;74.60;15.97;;;;;;;13.46;45.36;102972.09;5111473;28;20383;-68
2022/01/15 09:31:12;;;;;;;68.43;14.90;;;;;;;13.04;46.96;102964.53;5101919;28;20054;-68
2022/01/15 09:33:37;;;;;;;54.07;14.97;;;;;;;13.45;46.39;102965.06;5109123;28;20084;-68
2022/01/15 09:36:04;;;;;;;64.53;15.33;;;;;;;12.92;46.24;102961.72;5104530;28;20433;-68
2022/01/15 09:38:30;;;;;;;69.00;17.10;;;;;;;14.23;43.84;102946.56;5106744;28;20028;-68
2022/01/15 09:40:56;;;;;;;57.00;15.23;;;;;;;14.21;43.76;102948.31;5110410;28;20383;-68
2022/01/15 09:43:22;;;;;;;59.30;13.80;;;;;;;12.90;47.25;102968.72;5109710;28;20114;-68
2022/01/15 09:45:48;;;;;;;61.57;14.97;;;;;;;13.05;46.02;102971.56;5110045;28;20031;-67
2022/01/15 09:48:16;;;;;;;59.33;14.00;;;;;;;14.38;43.82;102962.50;5109267;28;20510;-68
2022/01/15 09:50:43;;;;;;;68.73;16.03;;;;;;;13.80;44.31;102969.84;5107173;28;20020;-68
2022/01/15 09:53:10;;;;;;;51.10;14.57;;;;;;;13.54;45.63;102971.31;5103143;28;20189;-68
2022/01/15 09:55:37;;;;;;;65.03;15.17;;;;;;;14.25;43.76;102960.63;5109207;28;20092;-68
2022/01/15 09:58:03;;;;;;;49.63;14.27;;;;;;;13.90;44.05;102961.19;5103389;28;20032;-68
2022/01/15 10:00:29;;;;;;;59.53;15.87;;;;;;;12.93;46.08;102971.38;5100087;28;20028;-68
2022/01/15 10:02:54;;;;;;;55.70;12.60;;;;;;;13.69;44.14;102965.34;5108879;28;20019;-67
2022/01/15 10:05:20;;;;;;;64.33;13.77;;;;;;;13.23;45.87;102964.78;5108019;28;20036;-68
2022/01/15 10:08:04;;;;;;;54.73;12.93;;;;;;;14.54;42.80;102965.25;5103035;28;20024;-68
2022/01/15 10:10:32;;;;;;;61.90;15.30;;;;;;;13.58;45.17;102966.97;5102971;28;20032;-68
2022/01/15 10:13:19;;;;;;;53.60;16.33;;;;;;;14.03;45.16;102960.44;5108281;28;20110;-68
2022/01/15 10:15:49;;;;;;;59.83;14.50;;;;;;;13.60;43.70;102965.25;5100049;28;20486;-68
2022/01/15 10:18:24;;;;;;;56.40;16.17;;;;;;;13.95;43.78;102956.84;5105198;28;20028;-68
2022/01/15 10:20:50;;;;;;;55.13;14.63;;;;;;;12.86;45.63;102959.03;5097533;28;20054;-68
2022/01/15 10:23:17;;;;;;;46.97;13.07;;;;;;;14.55;42.53;102948.59;5108603;28;20038;-68
2022/01/15 10:25:43;;;;;;;49.13;14.00;;;;;;;14.08;43.49;102935.06;5108272;28;20205;-68
2022/01/15 10:28:09;;;;;;;55.53;14.43;;;;;;;14.80;42.48;102933.00;5107394;28;20376;-68
2022/01/15 10:30:35;;;;;;;55.97;14.03;;;;;;;14.64;42.97;102945.16;5108523;28;20030;-68
2022/01/15 10:33:10;;;;;;;50.23;15.17;;;;;;;14.98;41.39;102938.34;5108312;28;20387;-68
2022/01/15 10:35:41;;;;;;;49.37;13.23;;;;;;;15.05;41.81;102945.38;5103158;28;20085;-69
2022/01/15 10:38:13;;;;;;;60.17;15.37;;;;;;;15.08;41.51;102947.16;5108115;28;20042;-68
2022/01/15 10:40:47;;;;;;;56.10;14.30;;;;;;;14.59;42.69;102945.13;5108486;28;20479;-68
2022/01/15 10:43:18;;;;;;;56.00;14.37;;;;;;;15.19;42.21;102947.22;5107196;28;20062;-68
2022/01/15 10:45:58;;;;;;;51.33;15.13;;;;;;;13.25;45.78;102952.53;5109337;28;20027;-68
2022/01/15 10:48:32;;;;;;;48.73;13.50;;;;;;;13.28;45.02;102944.69;5107712;28;20020;-68
2022/01/15 10:51:10;;;;;;;58.43;14.77;;;;;;;14.62;42.24;102939.88;5107753;28;20027;-68
2022/01/15 10:53:40;;;;;;;49.40;13.77;;;;;;;14.48;43.07;102936.25;5108580;28;20024;-68
2022/01/15 10:56:08;;;;;;;51.27;12.97;;;;;;;14.79;42.11;102931.22;5101930;28;20020;-68
2022/01/15 10:58:34;;;;;;;51.20;13.40;;;;;;;13.56;44.71;102951.19;5110014;28;20450;-68
2022/01/15 11:01:00;;;;;;;46.83;12.60;;;;;;;13.78;44.86;102940.03;5107619;28;20018;-67
2022/01/15 11:03:36;;;;;;;47.30;12.17;;;;;;;14.39;43.41;102940.56;5107641;28;20110;-68
2022/01/15 11:06:02;;;;;;;55.77;14.27;;;;;;;15.06;41.86;102936.63;5108303;28;20028;-68
2022/01/15 11:08:28;;;;;;;52.83;13.30;;;;;;;15.31;41.32;102935.84;5099871;28;20028;-68
2022/01/15 11:11:04;;;;;;;52.37;11.37;;;;;;;13.96;43.07;102937.59;5106363;28;20015;-68
2022/01/15 11:13:32;;;;;;;46.90;12.57;;;;;;;15.32;40.90;102927.94;5093776;28;20031;-68
2022/01/15 11:16:07;;;;;;;49.37;12.40;;;;;;;14.35;43.04;102928.25;5107414;28;20032;-68
2022/01/15 11:18:37;;;;;;;42.10;12.07;;;;;;;13.88;42.65;102934.88;5099532;28;20028;-68
2022/01/15 11:21:05;;;;;;;42.47;11.93;;;;;;;13.43;44.13;102930.03;5105433;28;20051;-68
2022/01/15 11:23:32;;;;;;;47.07;13.37;;;;;;;14.52;41.97;102922.22;5101468;28;20382;-68
2022/01/15 11:26:00;;;;;;;46.60;11.50;;;;;;;14.74;41.28;102918.00;5107582;28;20038;-68
2022/01/15 11:28:28;;;;;;;46.90;13.47;;;;;;;14.37;43.07;102917.75;5103403;28;20027;-68
2022/01/15 11:31:02;;;;;;;39.37;11.77;;;;;;;14.46;41.87;102911.69;5107061;28;20514;-68